| time (UTC) | temp F | wind direction | speed MPH | gust MPH | rain 1hr in | rain 24hr in | rain mn in | humidity % | barometer mb |
| 20260507144204 | 53 | 247 | 2.0 | 7.0 | 0.00 | 0.00 | 0.00 | 32 | 1010.5 |
| 20260507143704 | 53 | 252 | 2.0 | 7.0 | 0.00 | 0.00 | 0.00 | 33 | 1010.5 |
| 20260507142704 | 51 | 216 | 5.0 | 8.0 | 0.00 | 0.00 | 0.00 | 35 | 1010.5 |
| 20260507141704 | 50 | 285 | 4.0 | 8.0 | 0.00 | 0.00 | 0.00 | 35 | 1010.5 |
| 20260507141204 | 50 | 271 | 5.0 | 8.0 | 0.00 | 0.00 | 0.00 | 36 | 1010.5 |
| 20260507140204 | 49 | 218 | 5.0 | 9.0 | 0.00 | 0.00 | 0.00 | 37 | 1010.2 |
| 20260507135704 | 48 | 214 | 5.0 | 9.0 | 0.00 | 0.00 | 0.00 | 38 | 1010.2 |
| 20260507135203 | 48 | 240 | 5.0 | 9.0 | 0.00 | 0.00 | 0.00 | 39 | 1010.2 |
| 20260507134703 | 48 | 225 | 6.0 | 12.0 | 0.00 | 0.00 | 0.00 | 39 | 1010.3 |
| 20260507134204 | 47 | 217 | 6.0 | 10.0 | 0.00 | 0.00 | 0.00 | 39 | 1010.2 |
| 20260507133704 | 47 | 227 | 5.0 | 10.0 | 0.00 | 0.00 | 0.00 | 40 | 1010.2 |
| 20260507133204 | 46 | 218 | 4.0 | 8.0 | 0.00 | 0.00 | 0.00 | 41 | 1010.1 |
| 20260507132704 | 46 | 225 | 4.0 | 8.0 | 0.00 | 0.00 | 0.00 | 41 | 1010.0 |
| 20260507132204 | 46 | 218 | 7.0 | 12.0 | 0.00 | 0.00 | 0.00 | 42 | 1009.9 |
| 20260507131704 | 45 | 213 | 7.0 | 12.0 | 0.00 | 0.00 | 0.00 | 42 | 1009.8 |
| 20260507131203 | 45 | 219 | 6.0 | 8.0 | 0.00 | 0.00 | 0.00 | 43 | 1009.8 |
| 20260507130704 | 44 | 220 | 6.0 | 9.0 | 0.00 | 0.00 | 0.00 | 43 | 1009.9 |
| 20260507130204 | 44 | 227 | 5.0 | 8.0 | 0.00 | 0.00 | 0.00 | 43 | 1009.8 |
| 20260507125704 | 44 | 217 | 7.0 | 12.0 | 0.00 | 0.00 | 0.00 | 42 | 1009.8 |
| 20260507125204 | 44 | 217 | 6.0 | 9.0 | 0.00 | 0.00 | 0.00 | 43 | 1009.8 |
| 20260507124703 | 43 | 234 | 3.0 | 10.0 | 0.00 | 0.00 | 0.00 | 43 | 1009.7 |
| 20260507122705 | 42 | 225 | 2.0 | 3.0 | 0.00 | 0.00 | 0.00 | 45 | 1009.6 |
| 20260507122204 | 43 | 225 | 2.0 | 3.0 | 0.00 | 0.00 | 0.00 | 43 | 1009.6 |
| 20260507121704 | 43 | 225 | 1.0 | 3.0 | 0.00 | 0.00 | 0.00 | 43 | 1009.5 |
| 20260507121203 | 44 | 225 | 0.0 | 3.0 | 0.00 | 0.00 | 0.00 | 42 | 1009.4 |
| 20260507120704 | 44 | 225 | 1.0 | 3.0 | 0.00 | 0.00 | 0.00 | 42 | 1009.3 |
| 20260507120203 | 44 | 225 | 2.0 | 5.0 | 0.00 | 0.00 | 0.00 | 42 | 1009.3 |
| 20260507115703 | 43 | 235 | 4.0 | 7.0 | 0.00 | 0.00 | 0.00 | 43 | 1009.2 |
| 20260507115204 | 42 | 210 | 4.0 | 8.0 | 0.00 | 0.00 | 0.00 | 44 | 1009.1 |
| 20260507114703 | 42 | 247 | 5.0 | 7.0 | 0.00 | 0.00 | 0.00 | 45 | 1009.2 |
| 20260507114204 | 42 | 215 | 1.0 | 3.0 | 0.00 | 0.00 | 0.00 | 45 | 1009.3 |
| 20260507113704 | 42 | 215 | 1.0 | 3.0 | 0.00 | 0.00 | 0.00 | 44 | 1009.3 |
| 20260507113204 | 43 | 216 | 1.0 | 3.0 | 0.00 | 0.00 | 0.00 | 43 | 1009.2 |
| 20260507112703 | 43 | 217 | 3.0 | 6.0 | 0.00 | 0.00 | 0.00 | 42 | 1009.1 |
| 20260507111704 | 43 | 220 | 3.0 | 5.0 | 0.00 | 0.00 | 0.00 | 42 | 1009.1 |
| 20260507110703 | 43 | 220 | 4.0 | 5.0 | 0.00 | 0.00 | 0.00 | 41 | 1009.1 |
| 20260507110204 | 43 | 223 | 2.0 | 6.0 | 0.00 | 0.00 | 0.00 | 41 | 1009.1 |
| 20260507105704 | 44 | 221 | 3.0 | 7.0 | 0.00 | 0.00 | 0.00 | 40 | 1009.1 |
| 20260507104704 | 43 | 216 | 5.0 | 6.0 | 0.00 | 0.00 | 0.00 | 40 | 1009.0 |
| 20260507104204 | 43 | 217 | 3.0 | 6.0 | 0.00 | 0.00 | 0.00 | 40 | 1009.0 |
| 20260507103704 | 43 | 218 | 5.0 | 7.0 | 0.00 | 0.00 | 0.00 | 40 | 1009.0 |
| 20260507103204 | 43 | 221 | 5.0 | 6.0 | 0.00 | 0.00 | 0.00 | 40 | 1009.0 |
| 20260507102704 | 43 | 220 | 4.0 | 6.0 | 0.00 | 0.00 | 0.00 | 39 | 1009.0 |
| 20260507101706 | 44 | 225 | 3.0 | 6.0 | 0.00 | 0.00 | 0.00 | 39 | 1009.1 |
| 20260507101205 | 44 | 215 | 5.0 | 7.0 | 0.00 | 0.00 | 0.00 | 39 | 1009.1 |
| 20260507100706 | 44 | 206 | 6.0 | 7.0 | 0.00 | 0.00 | 0.00 | 38 | 1009.1 |
| 20260507100206 | 44 | 212 | 5.0 | 8.0 | 0.00 | 0.00 | 0.00 | 38 | 1009.0 |
| 20260507095706 | 44 | 210 | 6.0 | 7.0 | 0.00 | 0.00 | 0.00 | 38 | 1009.0 |
| 20260507095205 | 44 | 248 | 3.0 | 5.0 | 0.00 | 0.00 | 0.00 | 38 | 1009.1 |
| 20260507094706 | 45 | 249 | 3.0 | 6.0 | 0.00 | 0.00 | 0.00 | 37 | 1009.0 |
| 20260507094205 | 45 | 214 | 4.0 | 8.0 | 0.00 | 0.00 | 0.00 | 36 | 1008.9 |
| 20260507093705 | 45 | 216 | 5.0 | 9.0 | 0.00 | 0.00 | 0.00 | 36 | 1008.9 |
| 20260507093205 | 45 | 221 | 6.0 | 10.0 | 0.00 | 0.00 | 0.00 | 36 | 1008.8 |
| 20260507092706 | 45 | 212 | 7.0 | 12.0 | 0.00 | 0.00 | 0.00 | 35 | 1008.7 |
| 20260507092206 | 46 | 220 | 7.0 | 9.0 | 0.00 | 0.00 | 0.00 | 35 | 1008.8 |
| 20260507091706 | 45 | 207 | 7.0 | 13.0 | 0.00 | 0.00 | 0.00 | 35 | 1008.9 |
| 20260507091205 | 45 | 204 | 7.0 | 12.0 | 0.00 | 0.00 | 0.00 | 35 | 1009.0 |
| 20260507090706 | 45 | 207 | 9.0 | 12.0 | 0.00 | 0.00 | 0.00 | 35 | 1009.1 |
| 20260507090205 | 45 | 213 | 8.0 | 12.0 | 0.00 | 0.00 | 0.00 | 36 | 1009.2 |
| 20260507085705 | 45 | 213 | 8.0 | 12.0 | 0.00 | 0.00 | 0.00 | 36 | 1009.2 |
| 20260507085206 | 44 | 212 | 7.0 | 12.0 | 0.00 | 0.00 | 0.00 | 36 | 1009.3 |
| 20260507084706 | 44 | 219 | 7.0 | 9.0 | 0.00 | 0.00 | 0.00 | 36 | 1009.4 |
| 20260507084206 | 44 | 217 | 6.0 | 9.0 | 0.00 | 0.00 | 0.00 | 37 | 1009.3 |
| 20260507083705 | 44 | 214 | 6.0 | 8.0 | 0.00 | 0.00 | 0.00 | 37 | 1009.3 |
| 20260507083205 | 44 | 213 | 5.0 | 7.0 | 0.00 | 0.00 | 0.00 | 37 | 1009.3 |
| 20260507082706 | 44 | 225 | 6.0 | 9.0 | 0.00 | 0.00 | 0.00 | 36 | 1009.4 |
| 20260507081706 | 44 | 217 | 6.0 | 9.0 | 0.00 | 0.00 | 0.00 | 37 | 1009.3 |
| 20260507081206 | 44 | 222 | 6.0 | 9.0 | 0.00 | 0.00 | 0.00 | 37 | 1009.3 |
| 20260507080706 | 44 | 213 | 3.0 | 3.0 | 0.00 | 0.00 | 0.00 | 37 | 1009.1 |
| 20260507080205 | 44 | 213 | 3.0 | 5.0 | 0.00 | 0.00 | 0.00 | 38 | 1009.3 |
| 20260507075706 | 44 | 212 | 3.0 | 5.0 | 0.00 | 0.00 | 0.00 | 38 | 1009.3 |
| 20260507074705 | 45 | 220 | 5.0 | 7.0 | 0.00 | 0.00 | 0.00 | 37 | 1009.5 |
| 20260507074205 | 45 | 218 | 5.0 | 6.0 | 0.00 | 0.00 | 0.00 | 36 | 1009.5 |
| 20260507073705 | 45 | 222 | 5.0 | 6.0 | 0.00 | 0.00 | 0.00 | 37 | 1009.5 |
| 20260507072705 | 45 | 214 | 5.0 | 6.0 | 0.00 | 0.00 | 0.00 | 37 | 1009.6 |
| 20260507072205 | 45 | 215 | 5.0 | 7.0 | 0.00 | 0.00 | 0.00 | 37 | 1009.7 |
| 20260507071705 | 45 | 216 | 5.0 | 8.0 | 0.00 | 0.00 | 0.00 | 37 | 1009.8 |
| 20260507071206 | 45 | 208 | 7.0 | 10.0 | 0.00 | 0.00 | 0.00 | 37 | 1009.8 |
| 20260507070205 | 45 | 214 | 6.0 | 10.0 | 0.00 | 0.00 | 0.00 | 38 | 1009.9 |
| 20260507065206 | 45 | 213 | 7.0 | 12.0 | 0.00 | 0.00 | 0.00 | 38 | 1010.0 |
| 20260507064705 | 45 | 203 | 8.0 | 12.0 | 0.00 | 0.00 | 0.00 | 37 | 1010.1 |
| 20260507064205 | 46 | 211 | 7.0 | 12.0 | 0.00 | 0.00 | 0.00 | 37 | 1010.1 |
| 20260507063705 | 46 | 207 | 9.0 | 13.0 | 0.00 | 0.00 | 0.00 | 36 | 1010.1 |
| 20260507063206 | 46 | 206 | 7.0 | 12.0 | 0.00 | 0.00 | 0.00 | 36 | 1010.2 |
| 20260507062705 | 46 | 212 | 7.0 | 12.0 | 0.00 | 0.00 | 0.00 | 36 | 1010.2 |
| 20260507061705 | 45 | 204 | 7.0 | 12.0 | 0.00 | 0.00 | 0.00 | 36 | 1010.4 |
| 20260507061205 | 46 | 211 | 9.0 | 12.0 | 0.00 | 0.00 | 0.00 | 36 | 1010.5 |
| 20260507060705 | 46 | 210 | 9.0 | 13.0 | 0.00 | 0.00 | 0.00 | 36 | 1010.6 |
| 20260507060205 | 46 | 219 | 8.0 | 12.0 | 0.00 | 0.00 | 0.00 | 35 | 1010.6 |
| 20260507055705 | 47 | 209 | 8.0 | 12.0 | 0.00 | 0.00 | 0.00 | 34 | 1010.6 |
| 20260507055206 | 48 | 202 | 7.0 | 12.0 | 0.00 | 0.00 | 0.00 | 34 | 1010.7 |
| 20260507054706 | 48 | 207 | 7.0 | 10.0 | 0.00 | 0.00 | 0.00 | 33 | 1010.6 |
| 20260507054205 | 48 | 205 | 6.0 | 9.0 | 0.00 | 0.00 | 0.00 | 33 | 1010.6 |
| 20260507053206 | 48 | 211 | 3.0 | 5.0 | 0.00 | 0.00 | 0.00 | 33 | 1010.8 |
| 20260507052705 | 48 | 211 | 2.0 | 3.0 | 0.00 | 0.00 | 0.00 | 34 | 1010.8 |
| 20260507052206 | 48 | 215 | 2.0 | 3.0 | 0.00 | 0.00 | 0.00 | 34 | 1010.8 |
| 20260507051705 | 48 | 216 | 2.0 | 6.0 | 0.00 | 0.00 | 0.00 | 33 | 1010.9 |
| 20260507051205 | 47 | 218 | 2.0 | 6.0 | 0.00 | 0.00 | 0.00 | 34 | 1010.9 |
| 20260507050705 | 46 | 239 | 3.0 | 5.0 | 0.00 | 0.00 | 0.00 | 35 | 1011.0 |
| 20260507045706 | 44 | 252 | 2.0 | 6.0 | 0.00 | 0.00 | 0.00 | 38 | 1011.1 |
| 20260507045205 | 43 | 260 | 0.0 | 1.0 | 0.00 | 0.00 | 0.00 | 38 | 1011.2 |
| 20260507044705 | 43 | 260 | 0.0 | 0.0 | 0.00 | 0.00 | 0.00 | 39 | 1011.4 |
| 20260507044205 | 44 | 260 | 0.0 | 1.0 | 0.00 | 0.00 | 0.00 | 38 | 1011.4 |
| 20260507043705 | 45 | 260 | 1.0 | 2.0 | 0.00 | 0.00 | 0.00 | 36 | 1011.5 |
| 20260507043205 | 47 | 260 | 1.0 | 2.0 | 0.00 | 0.00 | 0.00 | 34 | 1011.6 |
| 20260507042705 | 47 | 260 | 1.0 | 3.0 | 0.00 | 0.00 | 0.00 | 32 | 1011.6 |
| 20260507042206 | 47 | 260 | 1.0 | 2.0 | 0.00 | 0.00 | 0.00 | 33 | 1011.7 |
| 20260507041705 | 46 | 260 | 1.0 | 2.0 | 0.00 | 0.00 | 0.00 | 34 | 1011.7 |
| 20260507041205 | 46 | 260 | 1.0 | 3.0 | 0.00 | 0.00 | 0.00 | 34 | 1011.8 |
| 20260507040705 | 46 | 260 | 0.0 | 1.0 | 0.00 | 0.00 | 0.00 | 36 | 1011.8 |
| 20260507040205 | 47 | 260 | 0.0 | 1.0 | 0.00 | 0.00 | 0.00 | 35 | 1012.0 |
| 20260507035706 | 47 | 260 | 0.0 | 1.0 | 0.00 | 0.00 | 0.00 | 35 | 1012.0 |
| 20260507034705 | 47 | 260 | 1.0 | 2.0 | 0.00 | 0.00 | 0.00 | 32 | 1012.2 |
| 20260507034205 | 47 | 260 | 1.0 | 2.0 | 0.00 | 0.00 | 0.00 | 32 | 1012.3 |
| 20260507033705 | 47 | 260 | 1.0 | 3.0 | 0.00 | 0.00 | 0.00 | 32 | 1012.3 |
| 20260507032705 | 47 | 260 | 0.0 | 1.0 | 0.00 | 0.00 | 0.00 | 35 | 1012.3 |
| 20260507032206 | 47 | 260 | 0.0 | 1.0 | 0.00 | 0.00 | 0.00 | 35 | 1012.2 |
| 20260507031706 | 47 | 260 | 1.0 | 2.0 | 0.00 | 0.00 | 0.00 | 35 | 1012.3 |
| 20260507031205 | 48 | 260 | 0.0 | 1.0 | 0.00 | 0.00 | 0.00 | 34 | 1012.3 |
| 20260507030705 | 48 | 260 | 0.0 | 1.0 | 0.00 | 0.00 | 0.00 | 34 | 1012.2 |
| 20260507030205 | 48 | 260 | 0.0 | 1.0 | 0.00 | 0.00 | 0.00 | 34 | 1012.3 |
| 20260507025705 | 49 | 260 | 0.0 | 1.0 | 0.00 | 0.00 | 0.00 | 34 | 1012.3 |
| 20260507024705 | 50 | 260 | 0.0 | 0.0 | 0.00 | 0.00 | 0.00 | 32 | 1012.2 |
| 20260507024205 | 51 | 260 | 0.0 | 1.0 | 0.00 | 0.00 | 0.00 | 31 | 1012.2 |
| 20260507023705 | 51 | 260 | 0.0 | 1.0 | 0.00 | 0.00 | 0.00 | 29 | 1012.2 |
| 20260507023205 | 51 | 260 | 0.0 | 1.0 | 0.00 | 0.00 | 0.00 | 29 | 1012.2 |
| 20260507022705 | 52 | 260 | 0.0 | 1.0 | 0.00 | 0.00 | 0.00 | 28 | 1012.2 |
| 20260507022205 | 53 | 260 | 0.0 | 1.0 | 0.00 | 0.00 | 0.00 | 28 | 1012.1 |
| 20260507021705 | 53 | 260 | 0.0 | 1.0 | 0.00 | 0.00 | 0.00 | 27 | 1012.1 |
| 20260507021205 | 54 | 260 | 1.0 | 2.0 | 0.00 | 0.00 | 0.00 | 26 | 1012.2 |
| 20260507020705 | 54 | 260 | 2.0 | 3.0 | 0.00 | 0.00 | 0.00 | 24 | 1012.3 |
| 20260507020205 | 54 | 260 | 2.0 | 3.0 | 0.00 | 0.00 | 0.00 | 24 | 1012.3 |
| 20260507015705 | 55 | 260 | 2.0 | 3.0 | 0.00 | 0.00 | 0.00 | 24 | 1012.4 |
| 20260507015205 | 55 | 260 | 3.0 | 6.0 | 0.00 | 0.00 | 0.00 | 24 | 1012.4 |
| 20260507013205 | 57 | 273 | 5.0 | 10.0 | 0.00 | 0.00 | 0.00 | 22 | 1012.6 |
| 20260507012205 | 58 | 278 | 6.0 | 12.0 | 0.00 | 0.00 | 0.00 | 22 | 1012.6 |
| 20260507011705 | 58 | 254 | 6.0 | 13.0 | 0.00 | 0.00 | 0.00 | 22 | 1012.7 |
| 20260507011205 | 58 | 225 | 6.0 | 9.0 | 0.00 | 0.00 | 0.00 | 21 | 1012.7 |
| 20260507010705 | 58 | 246 | 5.0 | 12.0 | 0.00 | 0.00 | 0.00 | 21 | 1012.7 |
| 20260507010205 | 58 | 254 | 7.0 | 13.0 | 0.00 | 0.00 | 0.00 | 21 | 1012.7 |
| 20260507005705 | 58 | 278 | 5.0 | 12.0 | 0.00 | 0.00 | 0.00 | 22 | 1012.8 |
| 20260507005205 | 58 | 274 | 4.0 | 10.0 | 0.00 | 0.00 | 0.00 | 22 | 1012.9 |
| 20260507004704 | 58 | 222 | 4.0 | 12.0 | 0.00 | 0.00 | 0.00 | 22 | 1013.0 |
| 20260507004205 | 57 | 240 | 7.0 | 13.0 | 0.00 | 0.00 | 0.00 | 22 | 1013.0 |
| 20260507003205 | 57 | 260 | 6.0 | 14.0 | 0.00 | 0.00 | 0.00 | 22 | 1013.2 |
| 20260507002705 | 57 | 258 | 6.0 | 13.0 | 0.00 | 0.00 | 0.00 | 22 | 1013.3 |
| 20260507002205 | 57 | 278 | 9.0 | 17.0 | 0.00 | 0.00 | 0.00 | 22 | 1013.3 |
| 20260507001705 | 58 | 239 | 10.0 | 18.0 | 0.00 | 0.00 | 0.00 | 21 | 1013.4 |
| 20260507001205 | 58 | 278 | 6.0 | 16.0 | 0.00 | 0.00 | 0.00 | 21 | 1013.5 |
| 20260507000704 | 58 | 279 | 9.0 | 17.0 | 0.00 | 0.00 | 0.00 | 21 | 1013.6 |
| 20260507000205 | 58 | 222 | 9.0 | 14.0 | 0.00 | 0.00 | 0.00 | 22 | 1013.6 |
| 20260506235705 | 58 | 259 | 7.0 | 17.0 | 0.00 | 0.00 | 0.00 | 21 | 1013.7 |
| 20260506235205 | 58 | 244 | 10.0 | 15.0 | 0.00 | 0.00 | 0.00 | 21 | 1013.8 |
| 20260506234205 | 58 | 270 | 9.0 | 16.0 | 0.00 | 0.00 | 0.00 | 21 | 1013.9 |
| 20260506233705 | 58 | 285 | 9.0 | 18.0 | 0.00 | 0.00 | 0.00 | 20 | 1013.9 |
| 20260506233205 | 58 | 289 | 9.0 | 20.0 | 0.00 | 0.00 | 0.00 | 20 | 1013.9 |
| 20260506232205 | 58 | 223 | 11.0 | 16.0 | 0.00 | 0.00 | 0.00 | 20 | 1013.9 |
| 20260506231705 | 58 | 267 | 10.0 | 20.0 | 0.00 | 0.00 | 0.00 | 21 | 1014.0 |
| 20260506230705 | 58 | 273 | 8.0 | 13.0 | 0.00 | 0.00 | 0.00 | 20 | 1013.9 |
| 20260506230204 | 58 | 273 | 9.0 | 17.0 | 0.00 | 0.00 | 0.00 | 20 | 1014.1 |
| 20260506225205 | 58 | 246 | 9.0 | 15.0 | 0.00 | 0.00 | 0.00 | 21 | 1014.2 |
| 20260506224704 | 57 | 302 | 7.0 | 18.0 | 0.00 | 0.00 | 0.00 | 20 | 1014.2 |
| 20260506224205 | 58 | 290 | 9.0 | 20.0 | 0.00 | 0.00 | 0.00 | 21 | 1014.4 |
| 20260506223204 | 57 | 296 | 7.0 | 13.0 | 0.00 | 0.00 | 0.00 | 20 | 1014.7 |
| 20260506222705 | 57 | 267 | 9.0 | 20.0 | 0.00 | 0.00 | 0.00 | 20 | 1014.8 |
| 20260506222205 | 57 | 206 | 12.0 | 20.0 | 0.00 | 0.00 | 0.00 | 20 | 1014.8 |
| 20260506221705 | 57 | 301 | 10.0 | 17.0 | 0.00 | 0.00 | 0.00 | 20 | 1014.9 |
| 20260506221204 | 57 | 255 | 11.0 | 20.0 | 0.00 | 0.00 | 0.00 | 21 | 1015.1 |
| 20260506220704 | 56 | 228 | 13.0 | 22.0 | 0.00 | 0.00 | 0.00 | 21 | 1015.2 |
| 20260506220205 | 56 | 255 | 8.0 | 16.0 | 0.00 | 0.00 | 0.00 | 21 | 1015.3 |
| 20260506215705 | 57 | 263 | 10.0 | 17.0 | 0.00 | 0.00 | 0.00 | 21 | 1015.5 |
| 20260506215204 | 56 | 275 | 8.0 | 14.0 | 0.00 | 0.00 | 0.00 | 21 | 1015.6 |
| 20260506214704 | 56 | 234 | 6.0 | 12.0 | 0.00 | 0.00 | 0.00 | 21 | 1015.6 |
| 20260506214205 | 56 | 268 | 11.0 | 23.0 | 0.00 | 0.00 | 0.00 | 21 | 1015.9 |
| 20260506213704 | 56 | 250 | 7.0 | 14.0 | 0.00 | 0.00 | 0.00 | 21 | 1015.9 |
| 20260506212705 | 56 | 269 | 10.0 | 20.0 | 0.00 | 0.00 | 0.00 | 22 | 1016.1 |
| 20260506212204 | 55 | 254 | 6.0 | 17.0 | 0.00 | 0.00 | 0.00 | 22 | 1016.2 |
| 20260506211704 | 55 | 263 | 10.0 | 20.0 | 0.00 | 0.00 | 0.00 | 22 | 1016.4 |
| 20260506210705 | 55 | 246 | 10.0 | 15.0 | 0.00 | 0.00 | 0.00 | 24 | 1016.6 |
| 20260506210204 | 55 | 303 | 9.0 | 16.0 | 0.00 | 0.00 | 0.00 | 24 | 1016.6 |
| 20260506205705 | 54 | 215 | 12.0 | 22.0 | 0.00 | 0.00 | 0.00 | 24 | 1016.6 |
| 20260506204704 | 54 | 293 | 6.0 | 13.0 | 0.00 | 0.00 | 0.00 | 24 | 1016.9 |
| 20260506204205 | 54 | 257 | 10.0 | 22.0 | 0.00 | 0.00 | 0.00 | 24 | 1017.0 |
| 20260506203705 | 53 | 252 | 9.0 | 14.0 | 0.00 | 0.00 | 0.00 | 25 | 1017.0 |
| 20260506203205 | 53 | 233 | 11.0 | 20.0 | 0.00 | 0.00 | 0.00 | 25 | 1017.1 |
| 20260506201705 | 53 | 234 | 5.0 | 15.0 | 0.00 | 0.00 | 0.00 | 25 | 1017.3 |
| 20260506200705 | 53 | 219 | 10.0 | 18.0 | 0.00 | 0.00 | 0.00 | 25 | 1017.6 |
| 20260506200205 | 52 | 223 | 7.0 | 15.0 | 0.00 | 0.00 | 0.00 | 26 | 1017.4 |
| 20260506195204 | 53 | 231 | 8.0 | 13.0 | 0.00 | 0.00 | 0.00 | 26 | 1017.7 |
| 20260506194704 | 52 | 238 | 5.0 | 14.0 | 0.00 | 0.00 | 0.00 | 26 | 1017.8 |
| 20260506193704 | 52 | 224 | 5.0 | 16.0 | 0.00 | 0.00 | 0.00 | 26 | 1017.8 |
| 20260506193205 | 51 | 224 | 5.0 | 10.0 | 0.00 | 0.00 | 0.00 | 27 | 1017.9 |
| 20260506192705 | 51 | 220 | 6.0 | 12.0 | 0.00 | 0.00 | 0.00 | 27 | 1018.1 |
| 20260506192204 | 50 | 261 | 9.0 | 15.0 | 0.00 | 0.00 | 0.00 | 27 | 1018.2 |
| 20260506191704 | 51 | 226 | 9.0 | 16.0 | 0.00 | 0.00 | 0.00 | 27 | 1018.2 |
| 20260506191205 | 51 | 289 | 6.0 | 14.0 | 0.00 | 0.00 | 0.00 | 27 | 1018.2 |
| 20260506190705 | 51 | 299 | 6.0 | 14.0 | 0.00 | 0.00 | 0.00 | 26 | 1018.4 |
| 20260506185704 | 50 | 298 | 7.0 | 15.0 | 0.00 | 0.00 | 0.00 | 28 | 1018.5 |
| 20260506185204 | 50 | 218 | 7.0 | 18.0 | 0.00 | 0.00 | 0.00 | 28 | 1018.5 |
| 20260506184705 | 50 | 265 | 6.0 | 12.0 | 0.00 | 0.00 | 0.00 | 28 | 1018.6 |
| 20260506184204 | 50 | 271 | 9.0 | 13.0 | 0.00 | 0.00 | 0.00 | 28 | 1018.6 |
| 20260506183204 | 50 | 307 | 9.0 | 15.0 | 0.00 | 0.00 | 0.00 | 30 | 1018.9 |
| 20260506182705 | 49 | 258 | 8.0 | 16.0 | 0.00 | 0.00 | 0.00 | 30 | 1018.9 |
| 20260506182204 | 49 | 256 | 3.0 | 12.0 | 0.00 | 0.00 | 0.00 | 32 | 1019.0 |
| 20260506181704 | 48 | 203 | 9.0 | 13.0 | 0.00 | 0.00 | 0.00 | 32 | 1019.1 |
| 20260506181205 | 48 | 279 | 6.0 | 13.0 | 0.00 | 0.00 | 0.00 | 34 | 1019.1 |
| 20260506180705 | 48 | 248 | 7.0 | 15.0 | 0.00 | 0.00 | 0.00 | 33 | 1019.3 |
| 20260506180205 | 48 | 289 | 6.0 | 15.0 | 0.00 | 0.00 | 0.00 | 33 | 1019.4 |
| 20260506175704 | 48 | 259 | 10.0 | 17.0 | 0.00 | 0.00 | 0.00 | 34 | 1019.5 |
| 20260506175204 | 47 | 294 | 5.0 | 13.0 | 0.00 | 0.00 | 0.00 | 34 | 1019.5 |
| 20260506174705 | 47 | 213 | 7.0 | 14.0 | 0.00 | 0.00 | 0.00 | 34 | 1019.6 |
| 20260506174204 | 47 | 254 | 7.0 | 16.0 | 0.00 | 0.00 | 0.00 | 34 | 1019.7 |
| 20260506173704 | 47 | 281 | 5.0 | 14.0 | 0.00 | 0.00 | 0.00 | 36 | 1019.8 |
| 20260506173204 | 47 | 231 | 6.0 | 13.0 | 0.00 | 0.00 | 0.00 | 35 | 1019.9 |
| 20260506172704 | 47 | 293 | 5.0 | 15.0 | 0.00 | 0.00 | 0.00 | 35 | 1020.0 |
| 20260506172204 | 47 | 311 | 6.0 | 13.0 | 0.00 | 0.00 | 0.00 | 35 | 1020.0 |
| 20260506171704 | 46 | 298 | 6.0 | 12.0 | 0.00 | 0.00 | 0.00 | 36 | 1020.1 |
| 20260506170704 | 46 | 313 | 8.0 | 16.0 | 0.00 | 0.00 | 0.00 | 36 | 1020.2 |
| 20260506170204 | 45 | 282 | 6.0 | 12.0 | 0.00 | 0.00 | 0.00 | 36 | 1020.3 |
| 20260506165204 | 45 | 270 | 6.0 | 20.0 | 0.00 | 0.00 | 0.00 | 35 | 1020.4 |
| 20260506164204 | 45 | 305 | 6.0 | 15.0 | 0.00 | 0.00 | 0.00 | 37 | 1020.5 |
| 20260506163704 | 45 | 291 | 9.0 | 16.0 | 0.00 | 0.00 | 0.00 | 36 | 1020.5 |
| 20260506162704 | 45 | 289 | 9.0 | 17.0 | 0.00 | 0.00 | 0.00 | 37 | 1020.5 |
| 20260506162204 | 45 | 292 | 6.0 | 17.0 | 0.00 | 0.00 | 0.00 | 37 | 1020.6 |
| 20260506161704 | 44 | 314 | 5.0 | 15.0 | 0.00 | 0.00 | 0.00 | 38 | 1020.6 |
| 20260506161204 | 44 | 241 | 6.0 | 16.0 | 0.00 | 0.00 | 0.00 | 37 | 1020.5 |
| 20260506160204 | 44 | 305 | 7.0 | 14.0 | 0.00 | 0.00 | 0.00 | 38 | 1020.6 |
| 20260506155704 | 43 | 273 | 6.0 | 17.0 | 0.00 | 0.00 | 0.00 | 39 | 1020.6 |
| 20260506154704 | 44 | 298 | 9.0 | 16.0 | 0.00 | 0.00 | 0.00 | 38 | 1020.8 |
| 20260506154204 | 44 | 299 | 5.0 | 14.0 | 0.00 | 0.00 | 0.00 | 39 | 1020.8 |
| 20260506153704 | 43 | 292 | 5.0 | 12.0 | 0.00 | 0.00 | 0.00 | 39 | 1020.8 |
| 20260506153204 | 43 | 269 | 6.0 | 16.0 | 0.00 | 0.00 | 0.00 | 40 | 1020.8 |
| 20260506152704 | 43 | 297 | 7.0 | 12.0 | 0.00 | 0.00 | 0.00 | 39 | 1020.7 |
| 20260506151704 | 43 | 322 | 7.0 | 14.0 | 0.00 | 0.00 | 0.00 | 40 | 1020.7 |
| 20260506151204 | 43 | 289 | 7.0 | 18.0 | 0.00 | 0.00 | 0.00 | 41 | 1020.8 |
| 20260506150704 | 42 | 315 | 7.0 | 15.0 | 0.00 | 0.00 | 0.00 | 40 | 1020.9 |
| 20260506150204 | 42 | 299 | 7.0 | 12.0 | 0.00 | 0.00 | 0.00 | 41 | 1020.9 |
| 20260506145204 | 41 | 262 | 9.0 | 14.0 | 0.00 | 0.00 | 0.00 | 42 | 1020.9 |
| 20260506144703 | 41 | 264 | 7.0 | 14.0 | 0.00 | 0.00 | 0.00 | 46 | 1021.0 |